createdAt,value
2018-12-07T00:00:13.434Z,0
2018-12-07T00:01:13.160Z,0
2018-12-07T00:02:13.403Z,0
2018-12-07T00:03:13.387Z,0
2018-12-07T00:04:13.379Z,0
2018-12-07T00:05:13.356Z,0
2018-12-07T00:06:13.351Z,0
2018-12-07T00:07:13.341Z,0
2018-12-07T00:08:13.329Z,0
2018-12-07T00:09:13.314Z,0
2018-12-07T00:10:13.296Z,0
2018-12-07T00:11:13.282Z,0
2018-12-07T00:12:13.281Z,0
2018-12-07T00:13:13.263Z,0
2018-12-07T00:14:13.393Z,0
2018-12-07T00:15:13.235Z,0
2018-12-07T00:16:13.222Z,0
2018-12-07T00:17:13.215Z,0
2018-12-07T00:18:13.201Z,0
2018-12-07T00:19:13.203Z,0
2018-12-07T00:20:12.681Z,0
2018-12-07T00:21:13.155Z,0
2018-12-07T00:22:13.149Z,0
2018-12-07T00:23:13.134Z,0
2018-12-07T00:24:13.117Z,0
2018-12-07T00:25:13.104Z,0
2018-12-07T00:26:13.091Z,0
2018-12-07T00:27:12.836Z,0
2018-12-07T00:28:12.827Z,0
2018-12-07T00:29:13.059Z,0
2018-12-07T00:30:13.061Z,0
2018-12-07T00:31:12.786Z,0
2018-12-07T00:32:13.030Z,0
2018-12-07T00:33:13.013Z,0
2018-12-07T00:34:12.993Z,0
2018-12-07T00:35:12.977Z,0
2018-12-07T00:36:12.977Z,0
2018-12-07T00:37:12.465Z,0
2018-12-07T00:38:12.951Z,0
2018-12-07T00:39:13.031Z,0
2018-12-07T00:40:12.676Z,0
2018-12-07T00:41:12.905Z,0
2018-12-07T00:42:12.898Z,0
2018-12-07T00:43:12.895Z,0
2018-12-07T00:44:12.875Z,0
2018-12-07T00:45:12.609Z,0
2018-12-07T00:46:12.851Z,0
2018-12-07T00:47:12.839Z,0
2018-12-07T00:48:12.914Z,0
2018-12-07T00:49:12.814Z,0
2018-12-07T00:50:12.793Z,0
2018-12-07T00:51:12.785Z,0
2018-12-07T00:52:12.783Z,0
2018-12-07T00:53:12.509Z,0
2018-12-07T00:54:12.747Z,0
2018-12-07T00:55:12.498Z,0
2018-12-07T00:56:12.724Z,0
2018-12-07T00:57:12.216Z,0
2018-12-07T00:58:12.706Z,0
2018-12-07T00:59:12.438Z,0
2018-12-07T01:00:12.675Z,0
2018-12-07T01:01:12.663Z,0
2018-12-07T01:02:12.666Z,0
2018-12-07T01:03:12.641Z,0
2018-12-07T01:04:12.655Z,0
2018-12-07T01:05:12.617Z,0
2018-12-07T01:06:12.353Z,0
2018-12-07T01:07:12.343Z,0
2018-12-07T01:08:12.581Z,0
2018-12-07T01:09:12.573Z,0
2018-12-07T01:10:12.552Z,0
2018-12-07T01:11:12.540Z,0
2018-12-07T01:12:12.528Z,0
2018-12-07T01:13:12.516Z,0
2018-12-07T01:14:12.587Z,0
2018-12-07T01:15:12.492Z,0
2018-12-07T01:16:12.480Z,0
2018-12-07T01:17:12.468Z,0
2018-12-07T01:18:12.451Z,0
2018-12-07T01:19:12.192Z,0
2018-12-07T01:20:12.425Z,0
2018-12-07T01:21:12.416Z,0
2018-12-07T01:22:12.184Z,0
2018-12-07T01:23:12.404Z,0
2018-12-07T01:24:12.133Z,0
2018-12-07T01:25:12.359Z,0
2018-12-07T01:26:12.359Z,0
2018-12-07T01:27:12.117Z,0
2018-12-07T01:28:12.332Z,0
2018-12-07T01:29:12.086Z,0
2018-12-07T01:30:12.305Z,0
2018-12-07T01:31:12.296Z,0
2018-12-07T01:32:12.297Z,0
2018-12-07T01:33:12.280Z,0
2018-12-07T01:34:12.262Z,0
2018-12-07T01:35:12.249Z,0
2018-12-07T01:36:11.987Z,0
2018-12-07T01:37:12.233Z,0
2018-12-07T01:38:12.213Z,0
2018-12-07T01:39:12.283Z,0
2018-12-07T01:40:12.183Z,0
2018-12-07T01:41:11.937Z,0
2018-12-07T01:42:12.164Z,0
2018-12-07T01:43:12.147Z,0
2018-12-07T01:44:12.144Z,0
2018-12-07T01:45:12.125Z,0
2018-12-07T01:46:12.118Z,0
2018-12-07T01:47:12.103Z,0
2018-12-07T01:48:12.092Z,0
2018-12-07T01:49:12.070Z,0
2018-12-07T01:50:12.068Z,0
2018-12-07T01:51:12.057Z,0
2018-12-07T01:52:12.040Z,0
2018-12-07T01:53:12.028Z,0
2018-12-07T01:54:12.015Z,0
2018-12-07T01:55:11.757Z,0
2018-12-07T01:56:11.997Z,0
2018-12-07T01:57:11.728Z,0
2018-12-07T01:58:11.968Z,0
2018-12-07T01:59:11.968Z,0
2018-12-07T02:00:11.948Z,0
2018-12-07T02:01:11.933Z,0
2018-12-07T02:02:11.681Z,0
2018-12-07T02:03:11.908Z,0
2018-12-07T02:04:11.656Z,0
2018-12-07T02:05:11.881Z,0
2018-12-07T02:06:11.873Z,0
2018-12-07T02:07:11.865Z,0
2018-12-07T02:08:11.858Z,0
2018-12-07T02:09:11.834Z,0
2018-12-07T02:10:11.829Z,0
2018-12-07T02:11:11.822Z,0
2018-12-07T02:12:11.815Z,0
2018-12-07T02:13:11.793Z,0
2018-12-07T02:14:11.527Z,0
2018-12-07T02:15:11.762Z,0
2018-12-07T02:16:11.506Z,0
2018-12-07T02:17:11.740Z,0
2018-12-07T02:18:11.733Z,0
2018-12-07T02:19:11.713Z,0
2018-12-07T02:20:11.704Z,0
2018-12-07T02:21:11.692Z,0
2018-12-07T02:22:11.434Z,0
2018-12-07T02:23:11.670Z,0
2018-12-07T02:24:11.655Z,0
2018-12-07T02:25:11.399Z,0
2018-12-07T02:26:11.634Z,0
2018-12-07T02:27:11.130Z,0
2018-12-07T02:28:11.608Z,0
2018-12-07T02:29:11.600Z,0
2018-12-07T02:30:11.353Z,0
2018-12-07T02:31:11.597Z,0
2018-12-07T02:32:11.167Z,0
2018-12-07T02:33:11.559Z,0
2018-12-07T02:34:11.543Z,0
2018-12-07T02:35:11.525Z,0
2018-12-07T02:36:11.518Z,0
2018-12-07T02:37:11.509Z,0
2018-12-07T02:38:11.249Z,0
2018-12-07T02:39:11.495Z,0
2018-12-07T02:40:11.467Z,0
2018-12-07T02:41:11.483Z,0
2018-12-07T02:42:11.443Z,0
2018-12-07T02:43:11.436Z,0
2018-12-07T02:44:11.423Z,0
2018-12-07T02:45:11.413Z,0
2018-12-07T02:46:11.395Z,0
2018-12-07T02:47:11.382Z,0
2018-12-07T02:48:11.126Z,0
2018-12-07T02:49:11.111Z,0
2018-12-07T02:50:11.111Z,0
2018-12-07T02:51:11.090Z,0
2018-12-07T02:52:11.342Z,0
2018-12-07T02:53:11.073Z,0
2018-12-07T02:54:11.311Z,0
2018-12-07T02:55:10.792Z,0
2018-12-07T02:56:11.032Z,0
2018-12-07T02:57:11.332Z,0
2018-12-07T02:58:11.262Z,0
2018-12-07T02:59:11.239Z,0
2018-12-07T03:00:11.227Z,0
2018-12-07T03:01:11.226Z,0
2018-12-07T03:02:11.230Z,0
2018-12-07T03:03:11.195Z,0
2018-12-07T03:04:10.930Z,0
2018-12-07T03:05:11.168Z,0
2018-12-07T03:06:10.909Z,0
2018-12-07T03:07:11.151Z,0
2018-12-07T03:08:10.690Z,0
2018-12-07T03:09:11.128Z,0
2018-12-07T03:10:11.118Z,0
2018-12-07T03:11:11.128Z,0
2018-12-07T03:12:11.090Z,0
2018-12-07T03:13:11.074Z,0
2018-12-07T03:14:11.139Z,0
2018-12-07T03:15:11.048Z,0
2018-12-07T03:16:11.041Z,0
2018-12-07T03:17:11.038Z,0
2018-12-07T03:18:11.018Z,0
2018-12-07T03:19:11.011Z,0
2018-12-07T03:20:10.992Z,0
2018-12-07T03:21:10.735Z,0
2018-12-07T03:22:10.973Z,0
2018-12-07T03:23:10.963Z,0
2018-12-07T03:24:10.943Z,0
2018-12-07T03:25:10.936Z,0
2018-12-07T03:26:10.680Z,0
2018-12-07T03:27:10.911Z,0
2018-12-07T03:28:10.900Z,0
2018-12-07T03:29:10.649Z,0
2018-12-07T03:30:10.896Z,0
2018-12-07T03:31:10.930Z,0
2018-12-07T03:32:10.867Z,0
2018-12-07T03:33:10.740Z,0
2018-12-07T03:34:10.832Z,0
2018-12-07T03:35:10.825Z,0
2018-12-07T03:36:10.801Z,0
2018-12-07T03:37:10.806Z,0
2018-12-07T03:38:10.543Z,0
2018-12-07T03:39:10.282Z,0
2018-12-07T03:40:10.777Z,0
2018-12-07T03:41:10.743Z,0
2018-12-07T03:42:10.739Z,0
2018-12-07T03:43:10.722Z,0
2018-12-07T03:44:10.727Z,0
2018-12-07T03:45:10.700Z,0
2018-12-07T03:46:10.445Z,0
2018-12-07T03:47:10.679Z,0
2018-12-07T03:48:10.680Z,0
2018-12-07T03:49:10.406Z,0
2018-12-07T03:50:10.646Z,0
2018-12-07T03:51:10.632Z,0
2018-12-07T03:52:10.627Z,0
2018-12-07T03:53:10.615Z,0
2018-12-07T03:54:10.703Z,0
2018-12-07T03:55:10.347Z,0
2018-12-07T03:56:10.623Z,0
2018-12-07T03:57:10.571Z,0
2018-12-07T03:58:10.295Z,0
2018-12-07T03:59:10.540Z,0
2018-12-07T04:00:10.567Z,0
2018-12-07T04:01:10.518Z,0
2018-12-07T04:02:10.257Z,0
2018-12-07T04:03:10.249Z,0
2018-12-07T04:04:10.482Z,0
2018-12-07T04:05:10.465Z,0
2018-12-07T04:06:10.533Z,0
2018-12-07T04:07:10.441Z,0
2018-12-07T04:08:10.447Z,0
2018-12-07T04:09:10.173Z,0
2018-12-07T04:10:10.411Z,0
2018-12-07T04:11:10.396Z,0
2018-12-07T04:12:10.390Z,0
2018-12-07T04:13:10.158Z,0
2018-12-07T04:14:10.401Z,0
2018-12-07T04:15:10.119Z,0
2018-12-07T04:16:10.332Z,0
2018-12-07T04:17:10.348Z,0
2018-12-07T04:18:10.067Z,0
2018-12-07T04:19:10.305Z,0
2018-12-07T04:20:10.040Z,0
2018-12-07T04:21:10.311Z,0
2018-12-07T04:22:10.278Z,0
2018-12-07T04:23:10.254Z,0
2018-12-07T04:24:10.253Z,0
2018-12-07T04:25:10.241Z,0
2018-12-07T04:26:09.977Z,0
2018-12-07T04:27:10.208Z,0
2018-12-07T04:28:10.202Z,0
2018-12-07T04:29:10.192Z,0
2018-12-07T04:30:09.924Z,0
2018-12-07T04:31:10.166Z,0
2018-12-07T04:32:09.907Z,0
2018-12-07T04:33:09.899Z,0
2018-12-07T04:34:10.127Z,0
2018-12-07T04:35:09.873Z,0
2018-12-07T04:36:14.702Z,0
2018-12-07T04:37:10.097Z,0
2018-12-07T04:38:09.581Z,0
2018-12-07T04:39:10.067Z,0
2018-12-07T04:40:10.062Z,0
2018-12-07T04:41:09.798Z,0
2018-12-07T04:42:10.063Z,0
2018-12-07T04:43:10.020Z,0
2018-12-07T04:44:10.017Z,0
2018-12-07T04:45:09.997Z,0
2018-12-07T04:46:10.031Z,0
2018-12-07T04:47:09.724Z,0
2018-12-07T04:48:09.721Z,0
2018-12-07T04:49:10.066Z,0
2018-12-07T04:50:09.941Z,0
2018-12-07T04:51:09.965Z,0
2018-12-07T04:52:09.687Z,0
2018-12-07T04:53:09.930Z,0
2018-12-07T04:54:09.912Z,0
2018-12-07T04:55:09.883Z,0
2018-12-07T04:56:09.875Z,0
2018-12-07T04:57:09.863Z,0
2018-12-07T04:58:09.846Z,0
2018-12-07T04:59:09.614Z,0
2018-12-07T05:00:09.576Z,0
2018-12-07T05:01:09.827Z,0
2018-12-07T05:02:09.857Z,0
2018-12-07T05:03:09.796Z,0
2018-12-07T05:04:09.776Z,0
2018-12-07T05:05:11.160Z,0
2018-12-07T05:06:09.772Z,0
2018-12-07T05:07:09.493Z,0
2018-12-07T05:08:09.752Z,0
2018-12-07T05:09:09.723Z,0
2018-12-07T05:10:09.710Z,0
2018-12-07T05:11:09.722Z,0
2018-12-07T05:12:09.688Z,0
2018-12-07T05:13:09.435Z,0
2018-12-07T05:14:09.669Z,0
2018-12-07T05:15:09.664Z,0
2018-12-07T05:16:09.655Z,0
2018-12-07T05:17:09.645Z,0
2018-12-07T05:18:09.632Z,0
2018-12-07T05:19:09.355Z,0
2018-12-07T05:20:09.340Z,0
2018-12-07T05:21:09.577Z,0
2018-12-07T05:22:09.573Z,0
2018-12-07T05:23:09.560Z,0
2018-12-07T05:24:09.603Z,0
2018-12-07T05:25:09.549Z,0
2018-12-07T05:26:09.526Z,0
2018-12-07T05:27:09.266Z,0
2018-12-07T05:28:09.500Z,0
2018-12-07T05:29:09.488Z,0
2018-12-07T05:30:09.471Z,0
2018-12-07T05:31:09.232Z,0
2018-12-07T05:32:09.449Z,0
2018-12-07T05:33:09.440Z,0
2018-12-07T05:34:09.439Z,0
2018-12-07T05:35:09.416Z,0
2018-12-07T05:36:09.402Z,0
2018-12-07T05:37:09.158Z,0
2018-12-07T05:38:09.390Z,0
2018-12-07T05:39:09.368Z,0
2018-12-07T05:40:09.207Z,0
2018-12-07T05:41:09.089Z,0
2018-12-07T05:42:09.333Z,0
2018-12-07T05:43:09.344Z,0
2018-12-07T05:44:09.335Z,0
2018-12-07T05:45:09.142Z,0
2018-12-07T05:46:09.388Z,0
2018-12-07T05:47:09.279Z,0
2018-12-07T05:48:09.334Z,0
2018-12-07T05:49:09.268Z,0
2018-12-07T05:50:09.240Z,0
2018-12-07T05:51:09.229Z,0
2018-12-07T05:52:08.960Z,0
2018-12-07T05:53:08.952Z,0
2018-12-07T05:54:09.194Z,0
2018-12-07T05:55:09.187Z,0
2018-12-07T05:56:08.923Z,0
2018-12-07T05:57:08.902Z,0
2018-12-07T05:58:09.146Z,0
2018-12-07T05:59:09.133Z,0
2018-12-07T06:00:09.132Z,0
2018-12-07T06:01:08.857Z,0
2018-12-07T06:02:09.092Z,0
2018-12-07T06:03:09.108Z,0
2018-12-07T06:04:09.086Z,0
2018-12-07T06:05:08.812Z,0
2018-12-07T06:06:09.053Z,0
2018-12-07T06:07:09.042Z,0
2018-12-07T06:08:09.019Z,0
2018-12-07T06:09:09.015Z,0
2018-12-07T06:10:08.999Z,0
2018-12-07T06:11:09.002Z,0
2018-12-07T06:12:08.978Z,0
2018-12-07T06:13:08.979Z,0
2018-12-07T06:14:08.953Z,0
2018-12-07T06:15:08.946Z,0
2018-12-07T06:16:08.938Z,0
2018-12-07T06:17:08.928Z,0
2018-12-07T06:18:08.682Z,0
2018-12-07T06:19:08.899Z,0
2018-12-07T06:20:08.893Z,0
2018-12-07T06:21:08.874Z,0
2018-12-07T06:22:08.613Z,0
2018-12-07T06:23:08.850Z,0
2018-12-07T06:24:08.842Z,0
2018-12-07T06:25:08.851Z,0
2018-12-07T06:26:08.816Z,0
2018-12-07T06:27:08.560Z,0
2018-12-07T06:28:08.548Z,0
2018-12-07T06:29:08.795Z,0
2018-12-07T06:30:08.797Z,0
2018-12-07T06:31:08.763Z,0
2018-12-07T06:32:08.746Z,0
2018-12-07T06:33:08.740Z,0
2018-12-07T06:34:08.721Z,0
2018-12-07T06:35:08.464Z,4
2018-12-07T06:36:08.709Z,4
2018-12-07T06:37:08.683Z,4
2018-12-07T06:38:08.675Z,4
2018-12-07T06:39:08.664Z,4
2018-12-07T06:40:08.740Z,8
2018-12-07T06:41:08.645Z,8
2018-12-07T06:42:08.628Z,8
2018-12-07T06:43:08.365Z,8
2018-12-07T06:44:08.623Z,8
2018-12-07T06:45:08.591Z,8
2018-12-07T06:46:08.584Z,8
2018-12-07T06:47:08.650Z,16
2018-12-07T06:48:08.551Z,16
2018-12-07T06:49:08.547Z,20
2018-12-07T06:50:08.533Z,20
2018-12-07T06:51:08.274Z,20
2018-12-07T06:52:08.519Z,28
2018-12-07T06:53:08.500Z,24
2018-12-07T06:54:08.485Z,28
2018-12-07T06:55:08.482Z,28
2018-12-07T06:56:08.497Z,36
2018-12-07T06:57:08.450Z,48
2018-12-07T06:58:08.449Z,52
2018-12-07T06:59:08.189Z,44
2018-12-07T07:00:08.420Z,56
2018-12-07T07:01:08.408Z,60
2018-12-07T07:02:08.147Z,60
2018-12-07T07:03:08.384Z,64
2018-12-07T07:04:08.124Z,48
2018-12-07T07:05:07.894Z,84
2018-12-07T07:06:08.356Z,64
2018-12-07T07:07:10.073Z,84
2018-12-07T07:08:08.324Z,88
2018-12-07T07:09:08.331Z,104
2018-12-07T07:10:08.303Z,104
2018-12-07T07:11:08.292Z,92
2018-12-07T07:12:08.278Z,124
2018-12-07T07:13:08.268Z,100
2018-12-07T07:14:08.263Z,116
2018-12-07T07:15:08.241Z,108
2018-12-07T07:16:08.232Z,140
2018-12-07T07:17:08.217Z,128
2018-12-07T07:18:07.968Z,148
2018-12-07T07:19:08.195Z,152
2018-12-07T07:20:08.195Z,140
2018-12-07T07:21:07.926Z,156
2018-12-07T07:22:08.160Z,140
2018-12-07T07:23:08.165Z,192
2018-12-07T07:24:08.136Z,188
2018-12-07T07:25:08.123Z,216
2018-12-07T07:26:08.115Z,200
2018-12-07T07:27:08.100Z,204
2018-12-07T07:28:08.142Z,204
2018-12-07T07:29:07.830Z,208
2018-12-07T07:30:08.073Z,232
2018-12-07T07:31:08.083Z,288
2018-12-07T07:32:07.800Z,276
2018-12-07T07:33:08.040Z,260
2018-12-07T07:34:08.027Z,288
2018-12-07T07:35:08.016Z,272
2018-12-07T07:36:08.007Z,260
2018-12-07T07:37:07.735Z,240
2018-12-07T07:38:07.975Z,256
2018-12-07T07:39:07.975Z,252
2018-12-07T07:40:07.952Z,320
2018-12-07T07:41:07.707Z,340
2018-12-07T07:42:07.944Z,368
2018-12-07T07:43:07.920Z,356
2018-12-07T07:44:07.663Z,396
2018-12-07T07:45:07.932Z,452
2018-12-07T07:46:07.886Z,460
2018-12-07T07:47:07.939Z,424
2018-12-07T07:48:07.868Z,444
2018-12-07T07:49:07.926Z,524
2018-12-07T07:50:07.838Z,512
2018-12-07T07:51:07.822Z,492
2018-12-07T07:52:07.808Z,592
2018-12-07T07:53:07.303Z,492
2018-12-07T07:54:07.794Z,516
2018-12-07T07:55:07.788Z,492
2018-12-07T07:56:15.092Z,500
2018-12-07T07:57:07.787Z,592
2018-12-07T07:58:07.503Z,568
2018-12-07T07:59:07.729Z,628
2018-12-07T08:00:07.479Z,612
2018-12-07T08:01:07.713Z,628
2018-12-07T08:02:07.704Z,636
2018-12-07T08:03:07.444Z,644
2018-12-07T08:04:07.186Z,604
2018-12-07T08:05:07.677Z,588
2018-12-07T08:06:07.655Z,604
2018-12-07T08:07:07.648Z,640
2018-12-07T08:08:07.630Z,652
2018-12-07T08:09:07.621Z,676
2018-12-07T08:10:07.614Z,740
2018-12-07T08:11:07.595Z,716
2018-12-07T08:12:07.337Z,764
2018-12-07T08:13:07.585Z,936
2018-12-07T08:14:07.357Z,824
2018-12-07T08:15:07.566Z,1072
2018-12-07T08:16:07.550Z,1060
2018-12-07T08:17:07.533Z,964
2018-12-07T08:18:07.523Z,1152
2018-12-07T08:19:07.515Z,1196
2018-12-07T08:20:07.268Z,1200
2018-12-07T08:21:07.488Z,1128
2018-12-07T08:22:07.763Z,1344
2018-12-07T08:23:14.440Z,1332
2018-12-07T08:24:07.452Z,1272
2018-12-07T08:25:07.444Z,1252
2018-12-07T08:26:07.185Z,1256
2018-12-07T08:27:07.171Z,1216
2018-12-07T08:28:07.407Z,1096
2018-12-07T08:29:07.395Z,1188
2018-12-07T08:30:07.386Z,1164
2018-12-07T08:31:07.376Z,1200
2018-12-07T08:32:07.368Z,1308
2018-12-07T08:33:07.350Z,1280
2018-12-07T08:34:07.368Z,1376
2018-12-07T08:35:07.327Z,1384
2018-12-07T08:36:07.313Z,1336
2018-12-07T08:37:07.304Z,1348
2018-12-07T08:38:07.298Z,1876
2018-12-07T08:39:07.281Z,1516
2018-12-07T08:40:07.278Z,1768
2018-12-07T08:41:07.266Z,1676
2018-12-07T08:42:13.517Z,1736
2018-12-07T08:43:07.241Z,1468
2018-12-07T08:44:07.254Z,1644
2018-12-07T08:45:06.715Z,1396
2018-12-07T08:46:06.985Z,1400
2018-12-07T08:47:07.192Z,1708
2018-12-07T08:48:06.941Z,1464
2018-12-07T08:49:07.169Z,1616
2018-12-07T08:50:07.168Z,1828
2018-12-07T08:51:07.149Z,1244
2018-12-07T08:52:07.141Z,1592
2018-12-07T08:53:07.130Z,1580
2018-12-07T08:54:07.120Z,1440
2018-12-07T08:55:07.115Z,1596
2018-12-07T08:56:07.124Z,1480
2018-12-07T08:57:06.827Z,1380
2018-12-07T08:58:07.075Z,1408
2018-12-07T08:59:06.809Z,1512
2018-12-07T09:00:07.041Z,1364
2018-12-07T09:01:07.033Z,1552
2018-12-07T09:02:06.774Z,1452
2018-12-07T09:03:07.028Z,1704
2018-12-07T09:04:07.003Z,1616
2018-12-07T09:05:06.998Z,2084
2018-12-07T09:06:06.732Z,1876
2018-12-07T09:07:06.967Z,2072
2018-12-07T09:08:06.957Z,2088
2018-12-07T09:09:06.958Z,2024
2018-12-07T09:10:06.693Z,2016
2018-12-07T09:11:06.932Z,1740
2018-12-07T09:12:06.915Z,1672
2018-12-07T09:13:06.652Z,1940
2018-12-07T09:14:06.897Z,1580
2018-12-07T09:15:06.996Z,1628
2018-12-07T09:16:06.870Z,1580
2018-12-07T09:17:06.862Z,1764
2018-12-07T09:18:06.851Z,1588
2018-12-07T09:19:06.336Z,1376
2018-12-07T09:20:06.829Z,1548
2018-12-07T09:21:06.808Z,1404
2018-12-07T09:22:06.796Z,1440
2018-12-07T09:23:06.543Z,1692
2018-12-07T09:24:06.531Z,1976
2018-12-07T09:25:06.781Z,1632
2018-12-07T09:26:06.762Z,1672
2018-12-07T09:27:06.746Z,1680
2018-12-07T09:28:06.487Z,1756
2018-12-07T09:29:06.724Z,1992
2018-12-07T09:30:06.713Z,2136
2018-12-07T09:31:06.702Z,1748
2018-12-07T09:32:06.691Z,1856
2018-12-07T09:33:06.684Z,1968
2018-12-07T09:34:06.176Z,1628
2018-12-07T09:35:06.661Z,2068
2018-12-07T09:36:06.649Z,1940
2018-12-07T09:37:06.728Z,2100
2018-12-07T09:38:12.916Z,1768
2018-12-07T09:39:06.623Z,1892
2018-12-07T09:40:06.608Z,2224
2018-12-07T09:41:06.595Z,2592
2018-12-07T09:42:06.578Z,2300
2018-12-07T09:43:06.071Z,2012
2018-12-07T09:44:06.307Z,1664
2018-12-07T09:45:06.412Z,2028
2018-12-07T09:46:06.290Z,2128
2018-12-07T09:47:06.534Z,1816
2018-12-07T09:48:06.520Z,1972
2018-12-07T09:49:06.249Z,1980
2018-12-07T09:50:06.498Z,1876
2018-12-07T09:51:06.226Z,1980
2018-12-07T09:52:06.220Z,2008
2018-12-07T09:53:06.468Z,1960
2018-12-07T09:54:06.205Z,1924
2018-12-07T09:55:05.942Z,2172
2018-12-07T09:56:06.176Z,1960
2018-12-07T09:57:06.423Z,2168
2018-12-07T09:58:06.409Z,1816
2018-12-07T09:59:06.216Z,2376
2018-12-07T10:00:06.134Z,2108
2018-12-07T10:01:06.368Z,1952
2018-12-07T10:02:06.363Z,2136
2018-12-07T10:03:06.351Z,2076
2018-12-07T10:04:06.339Z,2176
2018-12-07T10:05:06.331Z,2564
2018-12-07T10:06:06.327Z,2420
2018-12-07T10:07:06.305Z,2504
2018-12-07T10:08:06.299Z,2072
2018-12-07T10:09:06.289Z,2132
2018-12-07T10:10:06.031Z,1952
2018-12-07T10:11:06.261Z,2240
2018-12-07T10:12:06.254Z,2344
2018-12-07T10:13:12.624Z,2212
2018-12-07T10:14:05.978Z,2336
2018-12-07T10:15:06.383Z,2968
2018-12-07T10:16:06.206Z,2312
2018-12-07T10:17:05.952Z,2940
2018-12-07T10:18:06.183Z,3028
2018-12-07T10:19:06.178Z,2816
2018-12-07T10:20:06.171Z,3556
2018-12-07T10:21:05.992Z,2776
2018-12-07T10:22:06.220Z,3420
2018-12-07T10:23:05.885Z,2896
2018-12-07T10:24:05.873Z,3084
2018-12-07T10:25:05.861Z,3368
2018-12-07T10:26:06.095Z,2812
2018-12-07T10:27:06.094Z,2400
2018-12-07T10:28:06.077Z,2580
2018-12-07T10:29:06.081Z,2516
2018-12-07T10:30:05.807Z,3252
2018-12-07T10:31:06.103Z,2684
2018-12-07T10:32:06.031Z,2428
2018-12-07T10:33:06.056Z,2468
2018-12-07T10:34:06.015Z,2628
2018-12-07T10:35:06.007Z,1916
2018-12-07T10:36:05.735Z,2436
2018-12-07T10:37:05.985Z,2096
2018-12-07T10:38:05.966Z,2352
2018-12-07T10:39:05.961Z,2580
2018-12-07T10:40:05.939Z,2812
2018-12-07T10:41:05.696Z,2336
2018-12-07T10:42:07.156Z,3160
2018-12-07T10:43:05.910Z,2636
2018-12-07T10:44:05.905Z,2980
2018-12-07T10:45:05.651Z,3180
2018-12-07T10:46:05.635Z,2680
2018-12-07T10:47:05.865Z,2836
2018-12-07T10:48:05.857Z,2812
2018-12-07T10:49:05.845Z,2748
2018-12-07T10:50:05.853Z,2464
2018-12-07T10:51:12.674Z,2088
2018-12-07T10:52:05.814Z,2216
2018-12-07T10:53:05.799Z,2416
2018-12-07T10:54:05.790Z,2044
2018-12-07T10:55:05.530Z,2420
2018-12-07T10:56:05.776Z,2036
2018-12-07T10:57:05.504Z,2412
2018-12-07T10:58:05.755Z,1868
2018-12-07T10:59:05.488Z,2108
2018-12-07T11:00:05.726Z,2300
2018-12-07T11:01:05.465Z,2124
2018-12-07T11:02:05.457Z,2552
2018-12-07T11:03:05.687Z,2904
2018-12-07T11:04:05.679Z,3168
2018-12-07T11:05:05.665Z,3144
2018-12-07T11:06:05.406Z,3068
2018-12-07T11:07:05.647Z,3192
2018-12-07T11:08:05.635Z,2828
2018-12-07T11:09:05.370Z,2232
2018-12-07T11:10:05.610Z,2540
2018-12-07T11:11:05.348Z,3168
2018-12-07T11:12:05.589Z,3504
2018-12-07T11:13:05.578Z,4348
2018-12-07T11:14:05.322Z,3656
2018-12-07T11:15:05.555Z,4032
2018-12-07T11:16:05.545Z,3796
2018-12-07T11:17:05.540Z,3880
2018-12-07T11:18:05.532Z,3360
2018-12-07T11:19:05.514Z,3604
2018-12-07T11:20:05.510Z,3348
2018-12-07T11:21:05.488Z,3840
2018-12-07T11:22:05.496Z,3972
2018-12-07T11:23:05.480Z,3312
2018-12-07T11:24:05.456Z,2768
2018-12-07T11:25:05.446Z,2276
2018-12-07T11:26:05.181Z,2612
2018-12-07T11:27:05.176Z,2244
2018-12-07T11:28:05.477Z,2568
2018-12-07T11:29:05.400Z,2588
2018-12-07T11:30:05.393Z,2536
2018-12-07T11:31:05.126Z,2400
2018-12-07T11:32:05.368Z,2280
2018-12-07T11:33:05.362Z,2128
2018-12-07T11:34:05.345Z,2000
2018-12-07T11:35:05.337Z,1724
2018-12-07T11:36:12.797Z,2364
2018-12-07T11:37:05.063Z,3400
2018-12-07T11:38:05.299Z,2876
2018-12-07T11:39:05.358Z,3056
2018-12-07T11:40:05.285Z,4128
2018-12-07T11:41:05.267Z,4044
2018-12-07T11:42:05.254Z,3736
2018-12-07T11:43:05.242Z,3416
2018-12-07T11:44:05.236Z,2660
2018-12-07T11:45:05.224Z,3172
2018-12-07T11:46:05.290Z,2776
2018-12-07T11:47:05.192Z,2680
2018-12-07T11:48:05.268Z,2180
2018-12-07T11:49:05.175Z,1940
2018-12-07T11:50:05.167Z,1728
2018-12-07T11:51:05.157Z,2424
2018-12-07T11:52:04.894Z,2464
2018-12-07T11:53:04.635Z,2348
2018-12-07T11:54:05.118Z,2140
2018-12-07T11:55:05.105Z,2188
2018-12-07T11:56:05.107Z,1868
2018-12-07T11:57:04.840Z,1460
2018-12-07T11:58:05.158Z,1816
2018-12-07T11:59:05.058Z,1652
2018-12-07T12:00:04.806Z,1772
2018-12-07T12:01:04.790Z,1644
2018-12-07T12:02:05.026Z,1612
2018-12-07T12:03:05.069Z,1996
2018-12-07T12:04:05.004Z,1932
2018-12-07T12:05:05.000Z,1984
2018-12-07T12:06:04.986Z,1376
2018-12-07T12:07:04.972Z,1644
2018-12-07T12:08:04.490Z,1684
2018-12-07T12:09:04.950Z,1708
2018-12-07T12:10:04.437Z,1840
2018-12-07T12:11:04.924Z,1940
2018-12-07T12:12:04.918Z,2192
2018-12-07T12:13:04.911Z,2012
2018-12-07T12:14:04.893Z,1444
2018-12-07T12:15:04.879Z,1532
2018-12-07T12:16:06.141Z,1224
2018-12-07T12:17:04.855Z,1396
2018-12-07T12:18:04.856Z,1496
2018-12-07T12:19:04.832Z,1484
2018-12-07T12:20:04.823Z,1516
2018-12-07T12:21:04.808Z,1244
2018-12-07T12:22:04.808Z,1448
2018-12-07T12:23:04.914Z,1592
2018-12-07T12:24:04.785Z,1556
2018-12-07T12:25:04.774Z,1756
2018-12-07T12:26:04.544Z,1624
2018-12-07T12:27:04.494Z,1640
2018-12-07T12:28:04.813Z,1600
2018-12-07T12:29:04.749Z,1460
2018-12-07T12:30:04.708Z,1432
2018-12-07T12:31:04.698Z,1324
2018-12-07T12:32:04.703Z,1316
2018-12-07T12:33:04.425Z,1344
2018-12-07T12:34:04.664Z,1328
2018-12-07T12:35:04.649Z,1236
2018-12-07T12:36:04.471Z,1380
2018-12-07T12:37:04.635Z,1472
2018-12-07T12:38:04.622Z,1560
2018-12-07T12:39:04.363Z,1432
2018-12-07T12:40:04.696Z,1684
2018-12-07T12:41:04.587Z,1428
2018-12-07T12:42:04.575Z,1436
2018-12-07T12:43:04.575Z,1780
2018-12-07T12:44:04.543Z,2364
2018-12-07T12:45:04.289Z,2128
2018-12-07T12:46:04.524Z,2168
2018-12-07T12:47:04.527Z,2016
2018-12-07T12:48:05.158Z,2128
2018-12-07T12:49:04.494Z,2316
2018-12-07T12:50:04.233Z,1824
2018-12-07T12:51:04.463Z,1752
2018-12-07T12:52:04.205Z,1504
2018-12-07T12:53:04.198Z,1516
2018-12-07T12:54:04.430Z,1832
2018-12-07T12:55:04.428Z,1728
2018-12-07T12:56:04.412Z,1340
2018-12-07T12:57:04.158Z,2092
2018-12-07T12:58:04.397Z,2132
2018-12-07T12:59:04.130Z,2672
2018-12-07T13:00:06.117Z,2948
2018-12-07T13:01:04.390Z,2500
2018-12-07T13:02:04.341Z,2700
2018-12-07T13:03:04.430Z,2216
2018-12-07T13:04:04.313Z,2056
2018-12-07T13:05:04.302Z,2244
2018-12-07T13:06:04.295Z,1692
2018-12-07T13:07:04.039Z,1708
2018-12-07T13:08:04.271Z,1360
2018-12-07T13:09:04.027Z,1580
2018-12-07T13:10:04.256Z,1604
2018-12-07T13:11:04.231Z,1332
2018-12-07T13:12:04.243Z,1516
2018-12-07T13:13:04.219Z,1324
2018-12-07T13:14:03.954Z,1232
2018-12-07T13:15:04.220Z,1192
2018-12-07T13:16:03.932Z,1472
2018-12-07T13:17:04.193Z,1324
2018-12-07T13:18:04.161Z,1312
2018-12-07T13:19:04.150Z,1712
2018-12-07T13:20:04.135Z,1656
2018-12-07T13:21:04.126Z,1368
2018-12-07T13:22:03.876Z,1428
2018-12-07T13:23:03.849Z,1272
2018-12-07T13:24:04.089Z,916
2018-12-07T13:25:04.076Z,1116
2018-12-07T13:26:04.065Z,820
2018-12-07T13:27:03.811Z,1216
2018-12-07T13:28:04.041Z,704
2018-12-07T13:29:04.050Z,900
2018-12-07T13:30:04.021Z,1376
2018-12-07T13:31:04.001Z,1196
2018-12-07T13:32:03.999Z,1184
2018-12-07T13:33:03.983Z,1148
2018-12-07T13:34:03.814Z,1308
2018-12-07T13:35:03.959Z,1220
2018-12-07T13:36:03.702Z,1152
2018-12-07T13:37:03.946Z,1452
2018-12-07T13:38:03.939Z,1704
2018-12-07T13:39:03.664Z,1688
2018-12-07T13:40:04.069Z,2240
2018-12-07T13:41:04.549Z,2048
2018-12-07T13:42:04.428Z,1744
2018-12-07T13:43:03.954Z,2412
2018-12-07T13:44:04.352Z,2360
2018-12-07T13:45:04.675Z,2200
2018-12-07T13:46:04.062Z,1768
2018-12-07T13:47:04.481Z,1404
2018-12-07T13:48:04.559Z,1448
2018-12-07T13:49:04.326Z,1124
2018-12-07T13:50:04.606Z,908
2018-12-07T13:51:04.236Z,1008
2018-12-07T13:52:04.109Z,848
2018-12-07T13:53:04.236Z,700
2018-12-07T13:54:04.520Z,956
2018-12-07T13:55:04.179Z,964
2018-12-07T13:56:04.113Z,868
2018-12-07T13:57:05.034Z,824
2018-12-07T13:58:04.152Z,804
2018-12-07T13:59:04.282Z,880
2018-12-07T14:00:04.050Z,836
2018-12-07T14:01:04.093Z,812
2018-12-07T14:02:04.108Z,740
2018-12-07T14:03:04.231Z,656